Share

Montana, Bulgaria

12:13 PM EEST on April 24, 2014 (GMT +0300)
Marchevo (IMONTANA2) Elev 584 ft | 43.52 °N, 23.35 °E | Change Station

Current weather conditions updated 2 seconds ago

Mostly Cloudy
Mostly Cloudy
62.1 °F
Feels Like 62.1 °F
N
2.9
Wind Variable Wind from North
Gusts 2.9 mph
Sunrise 6:30 AM
Sunset 8:20 PM
Moon Waning Crescent

Today is forecast to be Cooler than yesterday. Showers and thunderstorms.

Pressure 29.86 in
Visibility 6.2 miles
Clouds Scattered Clouds 2800 ft
Mostly Cloudy 6700 ft
Dew Point 53 °F
Humidity 73%
Rainfall 0.03 in
Snow Depth Not available.
UV 4 out of 16
Pollen Not available.
Air Quality Not available.
Flu Activity Not available.
METAR LBSF 240900Z 13008MPS 9999 SCT028 BKN067 19/13 Q1011 NOSIG

More Conditions Fewer Conditions

Pressure 29.86 in
Visibility 6.2 miles
Clouds Scattered Clouds 2800 ft
Mostly Cloudy 6700 ft
Dew Point 53 °F
Humidity 73%
Rainfall 0.03 in
Snow Depth Not available.
UV 4 out of 16
Pollen Not available.
Air Quality Not available.
Flu Activity Not available.
METAR LBSF 240900Z 13008MPS 9999 SCT028 BKN067 19/13 Q1011 NOSIG

More Conditions Fewer Conditions

10-Day Weather Forecast

Almanac

Astronomy

Apr. 24, 2014 Rise Set
Actual Time 6:30 AM EEST 8:20 PM EEST
Civil Twilight 6:00 AM EEST 8:51 PM EEST
Nautical Twilight 5:23 AM EEST 9:28 PM EEST
Astronomical Twilight 4:42 AM EEST 10:09 PM EEST
Moon 3:39 AM EEST 3:06 PM EEST
Length of Visible Light 14h 50m
Length of Day
13h 49m
Tomorrow will be 2m 42s longer.
Waning Crescent, 27% of the Moon is Illuminated
Today
Waning Crescent
Apr 29
New
May 6
First Quarter
May 14
Full
May 21
Last Quarter

Yesterday's Extremes

Country Highs Country Lows

Community

  • Stacked
    Stacked
  • clouds approaching Red Sox Nation
    clouds approaching Red Sox Nation
  • Balance
    Balance
  • Nestled In
    Nestled In
  • Stunning Sunrise
    Stunning Sunrise

WunderPhotos

Upload Photos

1,704,575 photos uploaded!

WunderBlogs® & News

Nearby

Snow Depth

Not available.

Coastal Water Temperatures

Place Temperature
No Stations Reporting

Earthquake Activity

City Distance Mag. Time & Date
No recent earthquake activity has been reported nearby.
Minimum magnitude displayed is 2.5.

Nearby Weather Stations

Station Location Temp. Dew Point Humidity Wind Precip. Elev Updated Type
Marchevo, Marchevo 62.1 °F 53 °F 73% North  at  2.9 mph 0.01 in / hr 584 ft 12:13 PM EEST Rapid Fire

Show More Stations Show Fewer Stations

What do you think?

We're not finished. Please let us know what you like, what you don't like, and what you are still missing.